Terminal Aerodrome Forecast
Issued by NWS Des Moines, IA

Home | Current Version | Previous Version | Text Only | Print | Product List | Glossary On
Versions: 1 2 3 4 5 6 7 8 9 10 11 12 13 14 15 16 17 18 19 20 21 22 23 24 25 26 27 28 29 30 31 32 33 34
000
FTUS43 KDMX 290520
TAFALO
TAF
KALO 290520Z 2906/3006 01008KT P6SM SCT035 BKN060
     FM290900 VRB03KT 5SM BR SCT011 BKN030
     FM291100 VRB02KT 1SM BR SCT006 BKN012
     FM291400 02004KT 6SM BR SCT011 BKN022
     FM291500 03005KT P6SM SCT022 SCT030
     FM291700 02011G16KT P6SM FEW030=

USA.gov is the U.S. government's official web portal to all federal, state and local government web resources and services.